Date,TemperatureHighF,TemperatureAvgF,TemperatureLowF,DewpointHighF,DewpointAvgF,DewpointLowF,HumidityHigh,HumidityAvg,HumidityLow,PressureMaxIn,PressureMinIn,WindSpeedMaxMPH,WindSpeedAvgMPH,GustSpeedMaxMPH,PrecipitationSumIn
2013-1-1,49,45,40,49,44,31,99,96,64,30.04,29.91,4,0,8,0.00
2013-1-2,48,36,34,45,36,33,99,99,99,30.07,29.91,10,3,16,0.00
2013-1-3,38,33,32,36,32,27,99,95,78,30.25,30.03,8,2,13,0.00
2013-1-4,41,32,28,27,25,22,91,74,49,30.31,30.20,8,3,12,0.00
2013-1-5,52,37,26,37,27,22,98,69,33,30.27,30.16,3,0,6,0.71
2013-1-6,45,38,34,41,37,31,99,95,82,30.21,30.07,10,1,17,0.11
2013-1-7,60,38,27,36,31,27,99,79,33,30.29,30.17,7,1,11,0.00
2013-1-8,59,45,35,50,40,30,99,83,65,30.30,30.21,5,1,8,0.00
2013-1-9,59,55,50,58,54,50,99,99,99,30.37,30.26,4,0,5,0.01
2013-1-10,68,59,54,63,57,53,99,92,73,30.37,30.13,4,0,7,0.01
2013-1-11,63,60,58,62,60,58,99,99,99,30.14,30.06,5,1,11,0.00
2013-1-12,72,64,60,70,63,60,99,97,81,30.12,30.01,4,1,11,0.06
2013-1-13,65,62,59,65,62,59,99,97,90,30.06,29.96,11,2,21,1.62
2013-1-14,59,45,38,59,45,38,99,99,99,30.15,30.01,9,2,15,2.60
2013-1-15,60,47,41,60,46,40,99,99,99,30.07,29.91,4,0,8,1.43
2013-1-16,60,52,43,60,52,43,99,99,99,29.98,29.85,4,1,9,0.26
2013-1-17,45,38,30,44,38,30,99,99,99,30.20,29.65,17,5,31,1.06
2013-1-18,48,36,29,37,32,28,99,88,53,30.40,30.20,5,1,8,0.01
2013-1-19,56,41,33,36,30,26,99,70,34,30.34,30.14,4,1,8,0.00
2013-1-20,57,45,33,38,32,27,90,63,42,30.14,30.05,5,1,10,0.00
2013-1-21,44,44,44,27,27,27,51,51,51,30.06,30.06,0,0,3,0.00
2013-1-22,44,44,44,27,27,27,51,51,51,30.06,30.06,0,0,3,0.00
2013-1-23,44,44,38,39,28,27,81,53,51,30.09,30.06,7,0,16,0.00
2013-1-24,45,35,26,42,20,-1,90,59,22,30.26,30.07,14,5,28,0.00
2013-1-25,37,31,27,37,26,8,99,83,42,30.24,30.01,4,1,11,0.01
2013-1-26,46,37,30,36,32,28,99,82,50,30.23,30.08,8,3,12,0.00
2013-1-27,55,42,32,37,34,29,96,73,45,30.33,30.22,4,1,7,0.00
2013-1-28,46,46,46,35,35,35,66,66,66,30.29,30.29,1,1,2,0.00
2013-1-29,47,43,39,47,42,39,99,99,99,29.64,29.41,4,3,6,0.93
2013-1-30,36,32,30,35,31,29,99,97,85,30.07,29.38,9,1,13,0.21
2013-2-1,23,23,22,9,8,8,55,53,52,29.94,29.92,2,1,4,2.27
2013-2-2,33,27,20,32,21,7,99,79,37,29.93,29.69,6,1,12,0.00
2013-2-3,33,33,33,32,32,32,99,99,99,29.70,29.70,0,0,4,0.00